createdAt,value
2022-08-21T00:00:48.268Z,59.58
2022-08-21T00:03:16.055Z,59.28
2022-08-21T00:05:47.898Z,59.78
2022-08-21T00:08:15.137Z,59.75
2022-08-21T00:10:43.908Z,59.93
2022-08-21T00:13:12.091Z,60.08
2022-08-21T00:15:41.202Z,59.56
2022-08-21T00:18:12.708Z,59.67
2022-08-21T00:20:40.884Z,59.30
2022-08-21T00:23:08.712Z,59.31
2022-08-21T00:25:36.123Z,59.30
2022-08-21T00:28:04.006Z,59.67
2022-08-21T00:30:31.815Z,59.72
2022-08-21T00:32:59.373Z,59.86
2022-08-21T00:35:30.653Z,59.84
2022-08-21T00:37:58.698Z,60.27
2022-08-21T00:40:30.412Z,60.26
2022-08-21T00:42:58.500Z,60.61
2022-08-21T00:45:26.491Z,60.44
2022-08-21T00:47:56.230Z,60.91
2022-08-21T00:50:27.239Z,61.07
2022-08-21T00:52:54.439Z,61.30
2022-08-21T00:55:24.319Z,61.51
2022-08-21T00:57:55.456Z,61.64
2022-08-21T01:00:31.069Z,61.57
2022-08-21T01:03:00.248Z,62.58
2022-08-21T01:05:28.503Z,63.22
2022-08-21T01:07:58.238Z,63.19
2022-08-21T01:10:25.925Z,63.17
2022-08-21T01:12:56.361Z,63.52
2022-08-21T01:15:30.286Z,62.73
2022-08-21T01:17:57.981Z,62.36
2022-08-21T01:20:32.284Z,61.66
2022-08-21T01:23:04.303Z,61.75
2022-08-21T01:25:32.945Z,63.05
2022-08-21T01:28:05.967Z,63.19
2022-08-21T01:30:35.955Z,63.53
2022-08-21T01:33:03.598Z,63.80
2022-08-21T01:35:30.936Z,63.48
2022-08-21T01:37:58.288Z,63.89
2022-08-21T01:40:26.028Z,64.01
2022-08-21T01:42:54.600Z,63.80
2022-08-21T01:45:22.305Z,61.68
2022-08-21T01:47:49.567Z,61.10
2022-08-21T01:50:19.206Z,60.82
2022-08-21T01:52:46.568Z,60.07
2022-08-21T01:55:15.672Z,61.14
2022-08-21T01:57:43.496Z,60.70
2022-08-21T02:00:14.107Z,59.29
2022-08-21T02:02:45.186Z,60.11
2022-08-21T02:05:14.000Z,59.89
2022-08-21T02:07:50.921Z,59.79
2022-08-21T02:10:23.499Z,59.55
2022-08-21T02:12:51.024Z,59.36
2022-08-21T02:15:19.862Z,60.15
2022-08-21T02:17:50.625Z,60.16
2022-08-21T02:20:31.271Z,60.55
2022-08-21T02:22:59.066Z,61.25
2022-08-21T02:25:28.318Z,61.45
2022-08-21T02:27:56.391Z,61.37
2022-08-21T02:30:32.812Z,62.64
2022-08-21T02:33:00.645Z,63.00
2022-08-21T02:35:28.871Z,63.51
2022-08-21T02:37:59.162Z,64.00
2022-08-21T02:40:30.087Z,64.05
2022-08-21T02:42:57.728Z,64.21
2022-08-21T02:45:25.275Z,63.95
2022-08-21T02:47:55.907Z,64.30
2022-08-21T02:50:28.272Z,64.70
2022-08-21T02:52:56.370Z,65.02
2022-08-21T02:55:27.397Z,64.96
2022-08-21T02:57:56.158Z,65.30
2022-08-21T03:00:25.391Z,65.47
2022-08-21T03:02:53.063Z,66.00
2022-08-21T03:05:20.867Z,66.43
2022-08-21T03:07:50.604Z,66.33
2022-08-21T03:10:18.153Z,66.83
2022-08-21T03:12:45.301Z,67.02
2022-08-21T03:15:18.701Z,66.75
2022-08-21T03:17:47.159Z,66.77
2022-08-21T03:20:16.613Z,67.00
2022-08-21T03:22:45.726Z,67.72
2022-08-21T03:25:29.604Z,67.31
2022-08-21T03:28:13.417Z,67.83
2022-08-21T03:30:46.439Z,67.37
2022-08-21T03:33:15.147Z,67.66
2022-08-21T03:35:45.000Z,67.57
2022-08-21T03:38:14.207Z,67.89
2022-08-21T03:40:43.057Z,68.44
2022-08-21T03:43:11.362Z,68.59
2022-08-21T03:45:40.243Z,68.10
2022-08-21T03:48:08.839Z,68.49
2022-08-21T03:50:40.818Z,67.89
2022-08-21T03:53:17.138Z,67.83
2022-08-21T03:55:50.399Z,67.68
2022-08-21T03:58:20.111Z,67.51
2022-08-21T04:00:50.222Z,67.83
2022-08-21T04:03:18.613Z,67.66
2022-08-21T04:05:47.090Z,67.01
2022-08-21T04:08:15.915Z,67.02
2022-08-21T04:10:45.032Z,66.52
2022-08-21T04:13:12.557Z,65.85
2022-08-21T04:15:40.010Z,65.71
2022-08-21T04:18:07.230Z,65.00
2022-08-21T04:20:35.754Z,64.85
2022-08-21T04:23:04.600Z,65.02
2022-08-21T04:25:31.946Z,65.04
2022-08-21T04:27:59.580Z,65.10
2022-08-21T04:30:28.134Z,65.30
2022-08-21T04:32:58.290Z,65.18
2022-08-21T04:35:28.253Z,64.93
2022-08-21T04:37:55.871Z,64.82
2022-08-21T04:40:25.946Z,64.17
2022-08-21T04:42:57.783Z,64.20
2022-08-21T04:45:28.487Z,62.87
2022-08-21T04:47:58.531Z,62.10
2022-08-21T04:50:35.524Z,61.48
2022-08-21T04:53:10.875Z,60.84
2022-08-21T04:55:39.008Z,59.67
2022-08-21T04:58:09.916Z,55.74
2022-08-21T05:00:38.285Z,52.61
2022-08-21T05:03:08.413Z,48.61
2022-08-21T05:05:35.874Z,47.69
2022-08-21T05:08:04.557Z,48.06
2022-08-21T05:10:39.325Z,48.95
2022-08-21T05:13:14.558Z,45.22
2022-08-21T05:15:42.233Z,44.22
2022-08-21T05:18:10.102Z,42.43
2022-08-21T05:20:37.625Z,41.57
2022-08-21T05:23:12.867Z,40.45
2022-08-21T05:25:40.584Z,39.61
2022-08-21T05:28:09.023Z,39.96
2022-08-21T05:30:37.495Z,41.36
2022-08-21T05:33:07.201Z,41.45
2022-08-21T05:35:34.928Z,40.01
2022-08-21T05:38:02.559Z,37.66
2022-08-21T05:40:30.079Z,37.11
2022-08-21T05:42:58.000Z,36.62
2022-08-21T05:45:42.254Z,35.87
2022-08-21T05:48:25.053Z,35.05
2022-08-21T05:50:53.771Z,36.59
2022-08-21T05:53:22.898Z,37.80
2022-08-21T05:55:51.393Z,36.71
2022-08-21T05:58:21.251Z,34.49
2022-08-21T06:00:50.434Z,34.63
2022-08-21T06:03:39.566Z,36.21
2022-08-21T06:06:07.299Z,35.41
2022-08-21T06:08:35.242Z,33.95
2022-08-21T06:11:04.578Z,32.36
2022-08-21T06:13:31.763Z,31.57
2022-08-21T06:16:16.364Z,32.63
2022-08-21T06:18:45.900Z,32.03
2022-08-21T06:21:14.711Z,33.21
2022-08-21T06:23:42.590Z,33.79
2022-08-21T06:26:12.364Z,34.22
2022-08-21T06:28:40.371Z,32.63
2022-08-21T06:31:23.305Z,33.90
2022-08-21T06:33:51.805Z,34.92
2022-08-21T06:36:19.395Z,33.88
2022-08-21T06:38:51.097Z,32.40
2022-08-21T06:41:24.169Z,31.58
2022-08-21T06:43:55.001Z,32.21
2022-08-21T06:46:22.307Z,32.54
2022-08-21T06:48:49.602Z,32.65
2022-08-21T06:51:17.738Z,33.16
2022-08-21T06:53:45.089Z,33.77
2022-08-21T06:56:12.273Z,33.15
2022-08-21T06:58:39.610Z,33.65
2022-08-21T07:01:06.794Z,33.92
2022-08-21T07:03:37.654Z,34.46
2022-08-21T07:06:06.639Z,34.10
2022-08-21T07:08:34.456Z,34.84
2022-08-21T07:11:04.528Z,35.45
2022-08-21T07:13:31.735Z,35.77
2022-08-21T07:16:03.651Z,36.44
2022-08-21T07:18:32.433Z,35.98
2022-08-21T07:21:01.768Z,36.09
2022-08-21T07:23:33.259Z,37.19
2022-08-21T07:26:01.745Z,36.92
2022-08-21T07:28:30.282Z,36.74
2022-08-21T07:30:59.850Z,36.29
2022-08-21T07:33:30.067Z,36.01
2022-08-21T07:35:57.632Z,37.15
2022-08-21T07:38:26.055Z,37.69
2022-08-21T07:40:55.644Z,38.11
2022-08-21T07:43:22.983Z,38.69
2022-08-21T07:45:55.080Z,39.23
2022-08-21T07:48:23.612Z,39.06
2022-08-21T07:50:52.223Z,39.05
2022-08-21T07:53:19.475Z,38.60
2022-08-21T07:55:46.569Z,38.85
2022-08-21T07:58:13.968Z,37.86
2022-08-21T08:00:42.204Z,37.72
2022-08-21T08:03:09.749Z,38.58
2022-08-21T08:05:41.087Z,38.70
2022-08-21T08:08:08.716Z,40.09
2022-08-21T08:10:37.190Z,40.53
2022-08-21T08:13:04.800Z,40.50
2022-08-21T08:15:36.950Z,40.62
2022-08-21T08:18:05.161Z,40.70
2022-08-21T08:20:32.497Z,41.38
2022-08-21T08:23:00.115Z,41.23
2022-08-21T08:25:31.820Z,41.09
2022-08-21T08:28:16.629Z,40.46
2022-08-21T08:30:47.323Z,40.50
2022-08-21T08:33:15.874Z,40.13
2022-08-21T08:35:46.073Z,40.45
2022-08-21T08:38:13.383Z,41.33
2022-08-21T08:40:47.153Z,41.86
2022-08-21T08:43:15.496Z,40.59
2022-08-21T08:45:47.949Z,39.67
2022-08-21T08:48:21.165Z,40.20
2022-08-21T08:50:53.579Z,41.45
2022-08-21T08:53:29.449Z,41.72
2022-08-21T08:56:00.998Z,42.29
2022-08-21T08:58:32.287Z,42.06
2022-08-21T09:01:00.224Z,42.79
2022-08-21T09:03:29.488Z,43.95
2022-08-21T09:06:06.871Z,45.47
2022-08-21T09:08:41.116Z,46.13
2022-08-21T09:11:19.913Z,44.62
2022-08-21T09:14:05.647Z,44.98
2022-08-21T09:16:59.690Z,45.96
2022-08-21T09:19:45.254Z,43.76
2022-08-21T09:22:20.426Z,45.72
2022-08-21T09:24:57.595Z,44.42
2022-08-21T09:27:25.167Z,45.59
2022-08-21T09:29:55.518Z,46.48
2022-08-21T09:32:37.775Z,46.79
2022-08-21T09:35:16.889Z,46.05
2022-08-21T09:37:55.472Z,46.30
2022-08-21T09:40:41.060Z,45.85
2022-08-21T09:43:19.903Z,46.02
2022-08-21T09:45:48.910Z,44.23
2022-08-21T09:48:32.441Z,45.44
2022-08-21T09:51:10.319Z,45.85
2022-08-21T09:53:44.163Z,45.08
2022-08-21T09:56:49.063Z,44.75
2022-08-21T09:59:20.692Z,45.71
2022-08-21T10:01:51.787Z,46.04
2022-08-21T10:04:25.076Z,46.37
2022-08-21T10:06:52.354Z,46.08
2022-08-21T10:09:25.305Z,45.82
2022-08-21T10:12:30.183Z,46.99
2022-08-21T10:15:11.498Z,46.40
2022-08-21T10:18:09.059Z,46.08
2022-08-21T10:20:47.284Z,45.76
2022-08-21T10:23:49.812Z,45.22
2022-08-21T10:26:48.850Z,46.63
2022-08-21T10:29:35.160Z,44.21
2022-08-21T10:32:15.664Z,44.22
2022-08-21T10:35:05.505Z,45.72
2022-08-21T10:37:58.759Z,44.92
2022-08-21T10:40:57.946Z,45.95
2022-08-21T10:43:53.582Z,46.33
2022-08-21T10:46:44.416Z,45.78
2022-08-21T10:49:14.436Z,46.61
2022-08-21T10:51:56.260Z,47.32
2022-08-21T10:54:23.707Z,47.77
2022-08-21T10:56:59.977Z,49.60
2022-08-21T10:59:39.718Z,50.55
2022-08-21T11:02:09.906Z,51.70
2022-08-21T11:04:53.714Z,53.16
2022-08-21T11:07:34.049Z,53.39
2022-08-21T11:10:26.179Z,52.93
2022-08-21T11:13:01.625Z,53.43
2022-08-21T11:15:36.678Z,54.08
2022-08-21T11:18:42.808Z,55.21
2022-08-21T11:21:28.270Z,56.34
2022-08-21T11:24:10.290Z,55.13
2022-08-21T11:26:51.129Z,55.94
2022-08-21T11:29:21.576Z,54.81
2022-08-21T11:32:02.396Z,54.80
2022-08-21T11:34:48.697Z,56.51
2022-08-21T11:37:23.390Z,56.27
2022-08-21T11:40:16.664Z,55.28
2022-08-21T11:43:13.166Z,53.85
2022-08-21T11:45:56.949Z,53.02
2022-08-21T11:48:26.994Z,51.80
2022-08-21T11:50:56.520Z,53.96
2022-08-21T11:53:34.927Z,55.34
2022-08-21T11:56:35.451Z,53.10
2022-08-21T11:59:26.030Z,53.12
2022-08-21T12:01:54.428Z,53.51
2022-08-21T12:04:37.167Z,52.61
2022-08-21T12:07:15.938Z,52.29
2022-08-21T12:09:55.279Z,53.31
2022-08-21T12:12:27.415Z,55.61
2022-08-21T12:15:20.849Z,57.02
2022-08-21T12:17:56.748Z,56.23
2022-08-21T12:20:50.168Z,55.92
2022-08-21T12:23:31.421Z,54.40
2022-08-21T12:26:26.391Z,56.84
2022-08-21T12:29:11.910Z,55.41
2022-08-21T12:31:54.105Z,57.14
2022-08-21T12:34:26.098Z,56.09
2022-08-21T12:37:04.859Z,58.07
2022-08-21T12:39:35.319Z,57.74
2022-08-21T12:42:14.708Z,56.56
2022-08-21T12:44:57.181Z,58.19
2022-08-21T12:47:45.286Z,57.96
2022-08-21T12:50:48.921Z,59.91
2022-08-21T12:53:25.354Z,59.13
2022-08-21T12:55:52.852Z,60.05
2022-08-21T12:58:25.920Z,58.83
2022-08-21T13:01:08.151Z,59.28
2022-08-21T13:03:38.694Z,58.41
2022-08-21T13:06:07.675Z,58.34
2022-08-21T13:08:41.681Z,57.80
2022-08-21T13:11:14.925Z,57.90
2022-08-21T13:13:46.831Z,57.38
2022-08-21T13:16:25.655Z,58.23
2022-08-21T13:18:58.063Z,56.86
2022-08-21T13:21:49.608Z,55.25
2022-08-21T13:24:41.945Z,56.08
2022-08-21T13:27:23.502Z,55.57
2022-08-21T13:30:02.791Z,56.40
2022-08-21T13:32:33.456Z,55.48
2022-08-21T13:35:10.429Z,56.03
2022-08-21T13:37:41.603Z,55.81
2022-08-21T13:40:12.711Z,54.87
2022-08-21T13:42:43.102Z,53.42
2022-08-21T13:45:32.453Z,52.83
2022-08-21T13:48:06.065Z,52.32
2022-08-21T13:50:36.445Z,53.52
2022-08-21T13:53:07.200Z,52.90
2022-08-21T13:55:42.861Z,54.12
2022-08-21T13:58:12.028Z,55.92
2022-08-21T14:00:51.846Z,56.56
2022-08-21T14:03:43.966Z,55.28
2022-08-21T14:06:21.961Z,52.85
2022-08-21T14:09:00.243Z,54.06
2022-08-21T14:11:35.706Z,56.95
2022-08-21T14:14:17.979Z,57.21
2022-08-21T14:16:55.300Z,58.28
2022-08-21T14:19:44.871Z,57.13
2022-08-21T14:22:31.006Z,56.96
2022-08-21T14:25:21.233Z,58.49
2022-08-21T14:28:09.603Z,55.36
2022-08-21T14:30:43.570Z,56.91
2022-08-21T14:33:14.337Z,59.69
2022-08-21T14:35:43.025Z,60.17
2022-08-21T14:38:16.538Z,59.86
2022-08-21T14:40:45.306Z,59.70
2022-08-21T14:43:16.253Z,60.31
2022-08-21T14:45:45.098Z,59.13
2022-08-21T14:48:12.672Z,60.12
2022-08-21T14:50:41.570Z,60.69
2022-08-21T14:53:11.078Z,53.75
2022-08-21T14:55:58.908Z,59.85
2022-08-21T14:58:26.686Z,59.51
2022-08-21T15:00:55.657Z,61.10
2022-08-21T15:03:23.091Z,60.22
2022-08-21T15:05:51.091Z,56.99
2022-08-21T15:08:19.075Z,57.40
2022-08-21T15:11:10.531Z,54.94
2022-08-21T15:13:38.024Z,56.18
2022-08-21T15:16:05.343Z,58.58
2022-08-21T15:18:33.966Z,58.80
2022-08-21T15:21:01.456Z,59.98
2022-08-21T15:23:28.634Z,59.41
2022-08-21T15:25:59.760Z,58.96
2022-08-21T15:28:31.595Z,60.54
2022-08-21T15:31:01.532Z,54.55
2022-08-21T15:33:29.994Z,59.31
2022-08-21T15:35:57.457Z,59.53
2022-08-21T15:38:24.616Z,60.16
2022-08-21T15:40:52.689Z,59.64
2022-08-21T15:43:30.673Z,61.09
2022-08-21T15:46:00.954Z,61.67
2022-08-21T15:48:29.219Z,62.60
2022-08-21T15:50:56.409Z,59.80
2022-08-21T15:53:24.266Z,60.22
2022-08-21T15:55:51.528Z,60.13
2022-08-21T15:58:21.150Z,61.35
2022-08-21T16:00:48.531Z,60.88
2022-08-21T16:03:18.050Z,62.10
2022-08-21T16:05:46.286Z,60.96
2022-08-21T16:08:13.541Z,59.86
2022-08-21T16:10:41.259Z,60.01
2022-08-21T16:13:24.176Z,62.04
2022-08-21T16:15:51.858Z,62.97
2022-08-21T16:18:19.733Z,62.01
2022-08-21T16:20:47.058Z,58.74
2022-08-21T16:23:14.370Z,63.14
2022-08-21T16:25:42.475Z,62.84
2022-08-21T16:28:13.724Z,63.67
2022-08-21T16:30:42.293Z,65.01
2022-08-21T16:33:23.682Z,64.26
2022-08-21T16:35:51.917Z,63.91
2022-08-21T16:38:19.567Z,65.36
2022-08-21T16:40:47.032Z,64.47
2022-08-21T16:43:14.457Z,62.78
2022-08-21T16:45:42.965Z,61.95
2022-08-21T16:48:10.348Z,62.17
2022-08-21T16:50:38.321Z,61.86
2022-08-21T16:53:07.068Z,60.69
2022-08-21T16:55:38.559Z,61.76
2022-08-21T16:58:20.501Z,62.87
2022-08-21T17:00:48.160Z,63.74
2022-08-21T17:03:21.446Z,63.28
2022-08-21T17:05:48.890Z,63.21
2022-08-21T17:08:16.007Z,64.96
2022-08-21T17:10:48.786Z,64.79
2022-08-21T17:13:16.519Z,65.01
2022-08-21T17:15:43.816Z,64.51
2022-08-21T17:18:14.617Z,65.30
2022-08-21T17:20:41.906Z,65.57
2022-08-21T17:23:09.805Z,66.02
2022-08-21T17:25:40.269Z,67.15
2022-08-21T17:28:08.382Z,66.51
2022-08-21T17:30:35.725Z,65.27
2022-08-21T17:33:03.119Z,63.78
2022-08-21T17:35:30.349Z,63.76
2022-08-21T17:37:57.657Z,63.64
2022-08-21T17:40:24.941Z,64.50
2022-08-21T17:42:52.220Z,64.64
2022-08-21T17:45:20.925Z,64.41
2022-08-21T17:47:48.161Z,63.82
2022-08-21T17:50:22.864Z,64.04
2022-08-21T17:52:50.964Z,64.47
2022-08-21T17:55:20.519Z,64.15
2022-08-21T17:57:50.583Z,63.65
2022-08-21T18:00:19.245Z,61.61
2022-08-21T18:02:51.382Z,61.13
2022-08-21T18:05:18.613Z,61.19
2022-08-21T18:07:46.035Z,62.24
2022-08-21T18:10:13.315Z,62.61
2022-08-21T18:12:42.765Z,62.88
2022-08-21T18:15:14.201Z,62.26
2022-08-21T18:17:45.564Z,61.33
2022-08-21T18:20:15.740Z,60.47
2022-08-21T18:22:43.019Z,60.37
2022-08-21T18:25:10.949Z,60.39
2022-08-21T18:27:39.227Z,60.25
2022-08-21T18:30:08.081Z,59.99
2022-08-21T18:32:35.463Z,59.97
2022-08-21T18:35:07.098Z,59.28
2022-08-21T18:37:37.831Z,59.21
2022-08-21T18:40:08.835Z,59.02
2022-08-21T18:42:42.617Z,59.10
2022-08-21T18:45:21.074Z,58.94
2022-08-21T18:47:53.054Z,58.74
2022-08-21T18:50:24.840Z,58.42
2022-08-21T18:52:53.638Z,57.31
2022-08-21T18:55:24.419Z,57.99
2022-08-21T18:57:54.116Z,57.99
2022-08-21T19:00:26.518Z,58.03
2022-08-21T19:02:54.371Z,57.97
2022-08-21T19:05:23.033Z,58.41
2022-08-21T19:07:51.778Z,58.56
2022-08-21T19:10:27.641Z,58.68
2022-08-21T19:12:58.189Z,58.49
2022-08-21T19:15:25.883Z,58.50
2022-08-21T19:17:54.484Z,58.17
2022-08-21T19:20:30.652Z,58.18
2022-08-21T19:22:58.353Z,58.00
2022-08-21T19:25:33.919Z,57.47
2022-08-21T19:31:10.936Z,56.65
2022-08-21T19:33:42.145Z,56.23
2022-08-21T19:36:13.029Z,56.31
2022-08-21T19:38:40.685Z,56.11
2022-08-21T19:41:11.625Z,55.78
2022-08-21T19:43:50.028Z,55.26
2022-08-21T19:46:39.943Z,56.07
2022-08-21T19:49:15.740Z,55.89
2022-08-21T19:51:43.041Z,55.73
2022-08-21T19:54:17.430Z,55.40
2022-08-21T19:56:45.565Z,55.51
2022-08-21T19:59:17.706Z,55.75
2022-08-21T20:01:45.470Z,55.58
2022-08-21T20:04:18.263Z,56.06
2022-08-21T20:06:47.827Z,55.67
2022-08-21T20:09:17.202Z,55.75
2022-08-21T20:11:53.599Z,56.13
2022-08-21T20:14:25.659Z,56.38
2022-08-21T20:16:55.059Z,56.70
2022-08-21T20:19:22.622Z,57.08
2022-08-21T20:21:50.102Z,57.04
2022-08-21T20:24:17.437Z,57.74
2022-08-21T20:29:38.996Z,59.00
2022-08-21T20:32:12.298Z,59.46
2022-08-21T20:34:40.889Z,59.78
2022-08-21T20:39:55.424Z,60.23
2022-08-21T20:42:25.107Z,60.11
2022-08-21T20:44:54.002Z,59.86
2022-08-21T20:47:21.528Z,59.58
2022-08-21T20:49:56.377Z,59.63
2022-08-21T20:52:27.124Z,59.36
2022-08-21T20:55:04.119Z,59.42
2022-08-21T20:57:51.067Z,58.33
2022-08-21T21:00:21.404Z,57.99
2022-08-21T21:03:00.161Z,57.22
2022-08-21T21:05:36.650Z,57.09
2022-08-21T21:08:14.661Z,56.67
2022-08-21T21:10:51.673Z,56.68
2022-08-21T21:13:34.864Z,57.29
2022-08-21T21:16:12.917Z,57.57
2022-08-21T21:18:53.380Z,57.59
2022-08-21T21:21:23.496Z,58.31
2022-08-21T21:24:02.665Z,58.53
2022-08-21T21:26:49.008Z,58.32
2022-08-21T21:35:05.522Z,59.29
2022-08-21T21:37:57.950Z,59.29
2022-08-21T21:40:44.870Z,59.31
2022-08-21T21:43:30.613Z,59.78
2022-08-21T21:46:24.756Z,59.53
2022-08-21T21:53:12.890Z,60.46
2022-08-21T21:55:59.956Z,61.27
2022-08-21T21:59:00.954Z,61.48
2022-08-21T22:02:20.961Z,62.07
2022-08-21T22:05:33.597Z,62.47
2022-08-21T22:08:30.169Z,62.90
2022-08-21T22:11:08.973Z,63.38
2022-08-21T22:14:11.113Z,63.22
2022-08-21T22:16:39.685Z,63.20
2022-08-21T22:19:31.316Z,63.01
2022-08-21T22:22:16.654Z,63.32
2022-08-21T22:24:48.199Z,62.54
2022-08-21T22:27:36.894Z,62.62
2022-08-21T22:30:09.467Z,61.68
2022-08-21T22:32:42.767Z,61.96
2022-08-21T22:35:22.917Z,62.21
2022-08-21T22:37:57.994Z,62.10
2022-08-21T22:40:29.991Z,62.22
2022-08-21T22:46:05.881Z,62.18
2022-08-21T22:48:51.642Z,61.90
2022-08-21T22:51:35.676Z,61.84
2022-08-21T22:54:04.934Z,62.18
2022-08-21T22:56:49.544Z,62.11
2022-08-21T22:59:35.611Z,61.00
2022-08-21T23:02:21.934Z,60.42
2022-08-21T23:04:50.679Z,60.06
2022-08-21T23:07:43.611Z,60.52
2022-08-21T23:10:39.812Z,60.65
2022-08-21T23:13:20.270Z,60.60
2022-08-21T23:16:07.165Z,59.70
2022-08-21T23:18:55.266Z,58.92
2022-08-21T23:21:42.297Z,57.57
2022-08-21T23:24:39.464Z,56.99
2022-08-21T23:27:51.066Z,56.69
2022-08-21T23:30:23.901Z,57.05
2022-08-21T23:33:15.914Z,56.41
2022-08-21T23:36:07.513Z,56.14
2022-08-21T23:38:43.202Z,56.01
2022-08-21T23:41:47.215Z,55.32
2022-08-21T23:44:46.925Z,55.72
2022-08-21T23:47:43.533Z,55.86
2022-08-21T23:50:13.754Z,55.40
2022-08-21T23:53:09.042Z,55.97
2022-08-21T23:55:57.882Z,55.12
